Time;durP1;ratioP1;P1;durP2;ratioP2;P2;SDS_P1;SDS_P2;PMS_P1;PMS_P2;Temp;Humidity;BMP_temperature;BMP_pressure;BME280_temperature;BME280_humidity;BME280_pressure;Samples;Min_cycle;Max_cycle;Signal;HPM_P1;HPM_P2
2022/03/09 00:02:00;;;;;;;9.35;1.70;;;19.10;52.40;;;;;;4545118;31;20196;-69
2022/03/09 00:04:26;;;;;;;8.40;1.40;;;19.10;52.40;;;;;;4546218;31;20120;-69
2022/03/09 00:06:52;;;;;;;6.35;1.50;;;19.10;52.40;;;;;;4545536;31;20200;-69
2022/03/09 00:09:18;;;;;;;7.55;2.00;;;19.10;52.30;;;;;;4531439;31;20135;-69
2022/03/09 00:11:43;;;;;;;4.55;1.52;;;19.10;52.40;;;;;;4545754;31;20208;-69
2022/03/09 00:14:09;;;;;;;6.57;1.55;;;19.10;52.40;;;;;;4531468;31;20146;-69
2022/03/09 00:16:35;;;;;;;7.72;1.75;;;19.00;52.30;;;;;;4547009;31;20143;-69
2022/03/09 00:19:01;;;;;;;6.90;1.80;;;19.00;52.40;;;;;;4545544;31;20200;-69
2022/03/09 00:21:28;;;;;;;9.30;1.70;;;19.00;52.40;;;;;;4546983;31;20123;-69
2022/03/09 00:23:53;;;;;;;5.30;1.45;;;19.00;52.40;;;;;;4546035;31;20127;-69
2022/03/09 00:26:19;;;;;;;5.63;1.20;;;19.00;52.40;;;;;;4545756;31;20128;-69
2022/03/09 00:28:45;;;;;;;5.50;1.50;;;19.00;52.40;;;;;;4546428;31;20270;-69
2022/03/09 00:31:11;;;;;;;3.92;1.30;;;18.90;53.30;;;;;;4546169;31;20122;-69
2022/03/09 00:33:38;;;;;;;4.18;1.10;;;18.90;52.40;;;;;;4546549;31;20131;-69
2022/03/09 00:36:04;;;;;;;4.03;1.10;;;18.90;52.40;;;;;;4531144;31;20281;-69
2022/03/09 00:38:30;;;;;;;5.53;1.40;;;18.90;52.40;;;;;;4546646;31;20127;-69
2022/03/09 00:40:56;;;;;;;4.85;1.35;;;18.90;52.40;;;;;;4545495;31;20142;-69
2022/03/09 00:43:21;;;;;;;5.32;1.20;;;18.80;52.40;;;;;;4546183;31;20144;-69
2022/03/09 00:45:48;;;;;;;5.68;1.33;;;18.80;52.40;;;;;;4546027;31;20131;-69
2022/03/09 00:48:14;;;;;;;2.42;0.93;;;18.80;52.40;;;;;;4545703;31;20146;-69
2022/03/09 00:50:40;;;;;;;4.55;1.20;;;18.80;52.40;;;;;;4546033;31;20249;-69
2022/03/09 00:53:06;;;;;;;4.25;1.23;;;18.80;52.40;;;;;;4531032;31;20143;-69
2022/03/09 00:55:31;;;;;;;3.50;1.00;;;18.80;52.40;;;;;;4546416;31;20124;-69
2022/03/09 00:57:58;;;;;;;4.53;1.25;;;18.80;52.40;;;;;;4545435;31;20124;-69
2022/03/09 01:00:24;;;;;;;4.00;1.17;;;18.70;52.40;;;;;;4546034;31;20124;-69
2022/03/09 01:02:50;;;;;;;3.70;1.25;;;18.70;52.40;;;;;;4545441;31;20240;-69
2022/03/09 01:05:16;;;;;;;2.70;0.98;;;18.70;52.40;;;;;;4545989;31;20112;-69
2022/03/09 01:07:42;;;;;;;5.50;1.00;;;18.70;52.40;;;;;;4545981;31;20137;-68
2022/03/09 01:10:09;;;;;;;3.30;0.93;;;18.70;52.40;;;;;;4545430;31;20138;-69
2022/03/09 01:12:35;;;;;;;5.20;1.30;;;18.70;52.40;;;;;;4546280;31;20120;-69
2022/03/09 01:15:01;;;;;;;5.55;1.40;;;18.70;52.40;;;;;;4545212;31;20280;-69
2022/03/09 01:17:27;;;;;;;5.10;1.02;;;18.60;52.40;;;;;;4531566;31;20112;-69
2022/03/09 01:19:53;;;;;;;3.38;1.10;;;18.70;52.40;;;;;;4530698;31;20135;-69
2022/03/09 01:22:20;;;;;;;5.88;1.15;;;18.60;52.40;;;;;;4545557;31;20123;-69
2022/03/09 01:24:46;;;;;;;5.40;1.30;;;18.60;52.40;;;;;;4545591;31;20285;-69
2022/03/09 01:27:12;;;;;;;4.55;0.90;;;18.60;52.40;;;;;;4545196;31;20167;-69
2022/03/09 01:29:38;;;;;;;5.45;1.23;;;18.60;52.40;;;;;;4545942;31;20135;-69
2022/03/09 01:32:05;;;;;;;2.55;0.80;;;18.60;52.40;;;;;;4545088;31;20177;-69
2022/03/09 01:34:31;;;;;;;5.22;1.50;;;18.60;52.40;;;;;;4545828;31;20140;-69
2022/03/09 01:36:57;;;;;;;3.35;1.10;;;18.60;52.40;;;;;;4545050;31;20183;-69
2022/03/09 01:39:23;;;;;;;2.97;1.00;;;18.60;52.40;;;;;;4545586;31;20146;-69
2022/03/09 01:41:48;;;;;;;4.10;0.80;;;18.50;52.40;;;;;;4545555;31;20108;-69
2022/03/09 01:44:16;;;;;;;4.28;1.17;;;18.50;52.40;;;;;;4530514;31;20259;-69
2022/03/09 01:46:45;;;;;;;2.88;1.00;;;18.50;52.40;;;;;;4545768;31;20143;-68
2022/03/09 01:49:11;;;;;;;3.75;1.10;;;18.50;52.40;;;;;;4530184;31;20123;-69
2022/03/09 01:51:43;;;;;;;3.67;0.77;;;18.50;52.40;;;;;;4545455;31;20142;-69
2022/03/09 01:54:10;;;;;;;3.00;1.27;;;18.50;52.40;;;;;;4545297;31;20132;-69
2022/03/09 01:56:37;;;;;;;2.55;0.93;;;18.50;52.40;;;;;;4545334;31;20155;-70
2022/03/09 01:59:05;;;;;;;3.80;1.38;;;18.50;52.40;;;;;;4545543;31;20583;-69
2022/03/09 02:01:31;;;;;;;3.00;1.15;;;18.40;52.40;;;;;;4544903;31;20200;-69
2022/03/09 02:03:57;;;;;;;2.33;0.80;;;18.40;52.40;;;;;;4545554;31;20257;-69
2022/03/09 02:06:24;;;;;;;1.77;0.73;;;18.40;52.40;;;;;;4544734;31;20624;-69
2022/03/09 02:11:36;;;;;;;3.75;1.10;;;18.40;52.40;;;;;;4532969;31;20139;-69
2022/03/09 02:14:03;;;;;;;5.05;0.90;;;18.40;52.40;;;;;;4545063;31;20181;-69
2022/03/09 02:16:29;;;;;;;1.90;0.90;;;18.40;52.40;;;;;;4545056;31;20725;-68
2022/03/09 02:18:54;;;;;;;2.85;1.02;;;18.40;52.40;;;;;;4544316;31;20300;-68
2022/03/09 02:21:26;;;;;;;5.05;1.00;;;18.30;52.30;;;;;;4545482;31;20500;-69
2022/03/09 02:23:55;;;;;;;2.28;0.90;;;18.40;52.40;;;;;;4544721;31;20197;-69
2022/03/09 02:26:21;;;;;;;2.30;0.80;;;18.30;52.30;;;;;;4545145;31;20119;-69
2022/03/09 02:28:48;;;;;;;2.10;0.90;;;18.30;52.30;;;;;;4545205;31;20120;-69
2022/03/09 02:31:14;;;;;;;3.00;0.80;;;18.30;52.40;;;;;;4544806;31;20146;-69
2022/03/09 02:33:45;;;;;;;2.83;0.98;;;18.30;52.40;;;;;;4531082;31;20128;-69
2022/03/09 02:36:11;;;;;;;2.72;0.90;;;18.30;52.40;;;;;;4544412;31;20136;-69
2022/03/09 02:38:37;;;;;;;1.60;0.70;;;18.30;52.40;;;;;;4545492;31;20139;-69
2022/03/09 02:41:02;;;;;;;2.75;0.90;;;18.30;52.40;;;;;;4544467;31;20124;-69
2022/03/09 02:43:28;;;;;;;4.57;0.82;;;18.20;52.40;;;;;;4544797;31;20147;-69
2022/03/09 02:45:54;;;;;;;1.55;0.63;;;18.20;52.40;;;;;;4545032;31;20237;-69
2022/03/09 02:48:20;;;;;;;3.00;0.98;;;18.20;52.40;;;;;;4544487;31;20308;-69
2022/03/09 02:50:46;;;;;;;2.97;0.77;;;18.20;52.40;;;;;;4547204;31;20232;-69
2022/03/09 02:53:11;;;;;;;1.80;0.60;;;18.20;52.40;;;;;;4532709;31;20128;-69
2022/03/09 02:55:39;;;;;;;2.08;0.90;;;18.20;52.40;;;;;;4548189;31;20218;-69
2022/03/09 02:58:04;;;;;;;3.10;0.90;;;18.20;52.40;;;;;;4547319;31;20146;-69
2022/03/09 03:00:31;;;;;;;1.75;0.90;;;18.20;52.40;;;;;;4547835;31;20123;-69
2022/03/09 03:02:58;;;;;;;2.42;0.73;;;18.20;52.40;;;;;;4547574;31;20606;-69
2022/03/09 03:05:24;;;;;;;3.53;1.00;;;18.20;52.40;;;;;;4547625;31;20131;-69
2022/03/09 03:07:49;;;;;;;2.83;1.15;;;18.10;52.40;;;;;;4547904;31;20335;-69
2022/03/09 03:10:15;;;;;;;2.10;0.77;;;18.10;52.40;;;;;;4532414;31;20138;-69
2022/03/09 03:12:41;;;;;;;1.98;0.77;;;18.10;52.40;;;;;;4547987;31;20131;-69
2022/03/09 03:15:07;;;;;;;3.83;0.80;;;18.10;52.40;;;;;;4547140;31;20200;-69
2022/03/09 03:17:37;;;;;;;2.80;0.82;;;18.10;52.40;;;;;;4547586;31;20179;-69
2022/03/09 03:20:04;;;;;;;1.90;0.68;;;18.00;52.40;;;;;;4546977;31;20144;-69
2022/03/09 03:22:31;;;;;;;3.00;0.70;;;18.10;52.40;;;;;;4547151;31;20154;-69
2022/03/09 03:24:56;;;;;;;3.60;1.00;;;18.10;52.40;;;;;;4547712;31;20119;-69
2022/03/09 03:27:22;;;;;;;1.63;0.70;;;18.00;52.30;;;;;;4546636;31;20130;-69
2022/03/09 03:29:48;;;;;;;1.92;0.80;;;18.00;52.30;;;;;;4546425;31;20189;-69
2022/03/09 03:32:14;;;;;;;2.78;0.98;;;18.00;52.40;;;;;;4545990;31;20131;-69
2022/03/09 03:34:40;;;;;;;1.90;0.73;;;18.00;52.40;;;;;;4546447;31;20131;-69
2022/03/09 03:37:06;;;;;;;2.53;0.85;;;18.00;52.40;;;;;;4546375;31;20126;-69
2022/03/09 03:39:32;;;;;;;2.20;0.80;;;18.00;52.40;;;;;;4518505;31;20123;-69
2022/03/09 03:41:58;;;;;;;2.25;0.70;;;18.00;52.40;;;;;;4532149;31;20139;-69
2022/03/09 03:44:24;;;;;;;3.05;0.73;;;18.00;52.40;;;;;;4531353;31;20139;-69
2022/03/09 03:46:50;;;;;;;2.28;0.73;;;18.00;52.40;;;;;;4546682;31;20135;-69
2022/03/09 03:49:16;;;;;;;3.03;0.82;;;17.90;52.30;;;;;;4530839;31;20168;-69
2022/03/09 03:51:41;;;;;;;1.77;0.80;;;17.90;52.30;;;;;;4546511;31;20178;-69
2022/03/09 03:54:09;;;;;;;1.73;0.85;;;17.90;52.30;;;;;;4545981;31;20190;-69
2022/03/09 03:56:34;;;;;;;0.85;0.60;;;17.90;52.30;;;;;;4546102;31;20136;-68
2022/03/09 03:59:00;;;;;;;0.80;0.63;;;17.90;52.30;;;;;;4531873;31;20116;-69
2022/03/09 04:01:27;;;;;;;1.65;0.60;;;17.90;52.30;;;;;;4545475;31;20257;-69
2022/03/09 04:03:53;;;;;;;1.95;0.88;;;17.90;52.30;;;;;;4546476;31;20120;-69
2022/03/09 04:06:19;;;;;;;1.65;0.60;;;17.90;52.30;;;;;;4545319;31;20236;-69
2022/03/09 04:08:44;;;;;;;3.15;0.70;;;17.90;52.30;;;;;;4546238;31;20135;-69
2022/03/09 04:11:10;;;;;;;1.95;0.57;;;17.90;52.30;;;;;;4531299;31;20135;-69
2022/03/09 04:13:36;;;;;;;2.33;0.95;;;17.90;52.30;;;;;;4545755;31;20163;-69
2022/03/09 04:16:02;;;;;;;3.67;0.77;;;17.90;52.20;;;;;;4543886;31;20128;-68
2022/03/09 04:18:27;;;;;;;1.17;0.70;;;17.80;52.20;;;;;;4544592;31;20224;-69
2022/03/09 04:20:53;;;;;;;1.40;0.50;;;17.80;52.20;;;;;;4546058;31;20303;-68
2022/03/09 04:23:19;;;;;;;1.52;0.70;;;17.80;52.20;;;;;;4544895;31;20135;-69
2022/03/09 04:25:45;;;;;;;1.20;0.60;;;17.90;52.20;;;;;;4546220;31;20131;-68
2022/03/09 04:28:11;;;;;;;1.88;0.77;;;17.90;52.20;;;;;;4545074;31;20175;-69
2022/03/09 04:30:36;;;;;;;1.55;0.65;;;17.80;52.20;;;;;;4545754;31;20277;-69
2022/03/09 04:33:02;;;;;;;2.13;0.70;;;17.80;52.20;;;;;;4545525;31;20142;-69
2022/03/09 04:35:28;;;;;;;1.45;0.70;;;17.80;52.20;;;;;;4544987;31;20139;-69
2022/03/09 04:37:54;;;;;;;1.73;0.70;;;17.80;52.20;;;;;;4545436;31;20138;-69
2022/03/09 04:40:20;;;;;;;1.27;0.60;;;17.80;52.20;;;;;;4543853;31;20132;-71
2022/03/09 04:42:46;;;;;;;1.75;0.50;;;17.70;52.20;;;;;;4545164;31;20119;-71
2022/03/09 04:45:11;;;;;;;1.30;0.63;;;17.70;52.20;;;;;;4544376;31;20261;-70
2022/03/09 04:47:37;;;;;;;1.60;0.57;;;17.70;52.30;;;;;;4544535;31;20181;-70
2022/03/09 04:50:03;;;;;;;1.40;0.68;;;17.70;52.20;;;;;;4544371;31;20176;-69
2022/03/09 04:52:29;;;;;;;2.30;0.80;;;17.70;52.30;;;;;;4544467;31;20132;-70
2022/03/09 04:54:55;;;;;;;1.95;0.70;;;17.70;52.30;;;;;;4544959;31;20231;-69
2022/03/09 04:57:21;;;;;;;1.88;0.75;;;17.70;52.30;;;;;;4529134;31;20146;-69
2022/03/09 04:59:46;;;;;;;1.48;0.55;;;17.70;52.30;;;;;;4545016;31;20247;-69
2022/03/09 05:02:13;;;;;;;1.13;0.60;;;17.60;52.30;;;;;;4529475;31;20178;-69
2022/03/09 05:04:39;;;;;;;1.35;0.50;;;17.70;52.30;;;;;;4545001;31;20138;-69
2022/03/09 05:07:05;;;;;;;2.03;0.60;;;17.70;52.30;;;;;;4531238;31;20124;-69
2022/03/09 05:09:31;;;;;;;2.10;0.90;;;17.60;52.30;;;;;;4545718;31;20131;-69
2022/03/09 05:11:57;;;;;;;2.10;0.90;;;17.60;52.30;;;;;;4545871;31;20666;-68
2022/03/09 05:14:23;;;;;;;3.05;0.80;;;17.60;52.30;;;;;;4530639;31;20135;-69
2022/03/09 05:16:48;;;;;;;1.38;0.65;;;17.60;52.30;;;;;;4546276;31;20270;-69
2022/03/09 05:19:14;;;;;;;1.42;0.70;;;17.60;52.30;;;;;;4545168;31;20207;-69
2022/03/09 05:21:40;;;;;;;1.25;0.63;;;17.60;52.40;;;;;;4545912;31;20139;-69
2022/03/09 05:24:06;;;;;;;1.58;0.60;;;17.60;52.40;;;;;;4530921;31;20111;-68
2022/03/09 05:26:32;;;;;;;1.52;0.60;;;17.60;52.40;;;;;;4545737;31;20135;-69
2022/03/09 05:28:58;;;;;;;0.95;0.70;;;17.50;52.30;;;;;;4545742;31;20126;-69
2022/03/09 05:31:24;;;;;;;0.68;0.40;;;17.50;52.30;;;;;;4545079;31;20170;-69
2022/03/09 05:33:51;;;;;;;1.38;0.60;;;17.50;52.30;;;;;;4546119;31;20615;-69
2022/03/09 05:36:17;;;;;;;1.92;0.60;;;17.50;52.30;;;;;;4544942;31;20165;-69
2022/03/09 05:38:43;;;;;;;1.15;0.57;;;17.50;52.40;;;;;;4545662;31;20120;-69
2022/03/09 05:41:08;;;;;;;1.73;0.70;;;17.50;52.40;;;;;;4545371;31;20182;-69
2022/03/09 05:43:35;;;;;;;0.85;0.60;;;17.50;52.40;;;;;;4530887;31;20135;-69
2022/03/09 05:46:00;;;;;;;1.98;0.73;;;17.50;52.40;;;;;;4529898;31;20192;-69
2022/03/09 05:48:26;;;;;;;1.40;0.52;;;17.40;52.30;;;;;;4543790;31;20128;-68
2022/03/09 05:50:52;;;;;;;2.10;0.65;;;17.50;52.30;;;;;;4544809;31;20139;-69
2022/03/09 05:53:18;;;;;;;2.15;0.80;;;17.50;52.30;;;;;;4541887;31;20124;-69
2022/03/09 05:55:44;;;;;;;0.68;0.35;;;17.50;52.40;;;;;;4543892;31;20137;-69
2022/03/09 05:58:10;;;;;;;1.35;0.68;;;17.40;52.30;;;;;;4543100;31;20115;-69
2022/03/09 06:00:36;;;;;;;1.00;0.60;;;17.40;52.30;;;;;;4544144;31;20255;-69
2022/03/09 06:03:02;;;;;;;2.17;0.70;;;17.40;52.50;;;;;;4543743;31;20707;-69
2022/03/09 06:05:28;;;;;;;1.00;0.60;;;17.40;52.50;;;;;;4543620;31;20611;-69
2022/03/09 06:07:54;;;;;;;1.27;0.68;;;17.40;52.40;;;;;;4528001;31;20146;-68
2022/03/09 06:10:20;;;;;;;1.58;0.50;;;17.40;52.40;;;;;;4544041;31;20124;-68
2022/03/09 06:12:46;;;;;;;0.88;0.60;;;17.40;52.40;;;;;;4545644;31;20530;-69
2022/03/09 06:15:12;;;;;;;1.25;0.57;;;17.40;52.40;;;;;;4544872;31;20155;-69
2022/03/09 06:17:49;;;;;;;1.00;0.65;;;17.40;52.40;;;;;;4544924;31;20128;-69
2022/03/09 06:20:20;;;;;;;1.45;0.60;;;17.40;52.40;;;;;;4544330;31;20593;-68
2022/03/09 06:22:47;;;;;;;0.98;0.40;;;17.30;52.30;;;;;;4529301;31;20135;-68
2022/03/09 06:25:16;;;;;;;2.15;0.60;;;17.30;52.30;;;;;;4546176;31;20148;-68
2022/03/09 06:27:46;;;;;;;1.73;0.70;;;17.30;52.30;;;;;;4547084;31;20143;-69
2022/03/09 06:30:13;;;;;;;1.30;0.50;;;17.30;52.40;;;;;;4533409;31;20122;-69
2022/03/09 06:32:40;;;;;;;1.10;0.60;;;17.30;52.40;;;;;;4532693;31;20151;-69
2022/03/09 06:35:06;;;;;;;1.52;0.52;;;17.30;52.40;;;;;;4547660;31;20128;-69
2022/03/09 06:37:33;;;;;;;1.63;0.82;;;17.20;52.30;;;;;;4548551;31;20126;-69
2022/03/09 06:39:59;;;;;;;1.15;0.50;;;17.30;52.40;;;;;;4547617;31;20144;-69
2022/03/09 06:42:26;;;;;;;1.30;0.47;;;17.30;52.40;;;;;;4547714;31;20241;-69
2022/03/09 06:44:52;;;;;;;0.95;0.50;;;17.30;52.40;;;;;;4547149;31;20185;-68
2022/03/09 06:47:18;;;;;;;1.08;0.70;;;17.20;52.30;;;;;;4547876;31;20277;-69
2022/03/09 06:49:44;;;;;;;1.15;0.50;;;17.20;52.40;;;;;;4547430;31;20132;-69
2022/03/09 06:52:11;;;;;;;1.02;0.50;;;17.20;52.40;;;;;;4533419;31;20244;-69
2022/03/09 06:54:36;;;;;;;1.10;0.60;;;17.20;52.40;;;;;;4547976;31;20184;-68
2022/03/09 06:57:03;;;;;;;1.00;0.55;;;17.20;52.40;;;;;;4547489;31;20228;-69
2022/03/09 06:59:29;;;;;;;2.33;0.60;;;17.20;52.50;;;;;;4548234;31;20162;-69
2022/03/09 07:01:55;;;;;;;1.48;0.50;;;17.20;52.40;;;;;;4547279;31;20183;-69
2022/03/09 07:04:21;;;;;;;1.33;0.60;;;17.20;52.50;;;;;;4547998;31;20135;-69
2022/03/09 07:06:47;;;;;;;0.65;0.40;;;17.10;52.40;;;;;;4547326;31;20130;-69
2022/03/09 07:09:14;;;;;;;1.15;0.45;;;17.10;52.40;;;;;;4547794;31;20553;-69
2022/03/09 07:11:41;;;;;;;1.23;0.60;;;17.10;52.40;;;;;;4547896;31;20135;-69
2022/03/09 07:14:07;;;;;;;1.30;0.55;;;17.10;52.40;;;;;;4547190;31;20132;-69
2022/03/09 07:16:34;;;;;;;1.55;0.80;;;17.10;52.40;;;;;;4548145;31;20131;-69
2022/03/09 07:19:00;;;;;;;0.80;0.50;;;17.10;52.40;;;;;;4546963;31;20132;-69
2022/03/09 07:21:25;;;;;;;1.17;0.60;;;17.10;52.50;;;;;;4547584;31;20172;-69
2022/03/09 07:23:51;;;;;;;0.95;0.60;;;17.10;52.50;;;;;;4547068;31;20123;-69
2022/03/09 07:26:17;;;;;;;1.83;0.47;;;17.10;52.50;;;;;;4547536;31;20133;-69
2022/03/09 07:28:43;;;;;;;1.17;0.70;;;17.10;52.50;;;;;;4547592;31;20521;-69
2022/03/09 07:31:09;;;;;;;1.20;0.40;;;17.10;52.50;;;;;;4547105;31;20139;-69
2022/03/09 07:33:35;;;;;;;1.45;0.80;;;17.10;52.50;;;;;;4547741;31;20131;-68
2022/03/09 07:36:01;;;;;;;1.08;0.55;;;17.10;52.50;;;;;;4546114;31;20124;-69
2022/03/09 07:38:29;;;;;;;1.30;0.50;;;17.00;52.50;;;;;;4547570;31;20131;-69
2022/03/09 07:40:55;;;;;;;0.60;0.40;;;17.10;52.60;;;;;;4546812;31;20150;-69
2022/03/09 07:43:21;;;;;;;1.25;0.65;;;17.10;52.50;;;;;;4547276;31;20132;-69
2022/03/09 07:45:47;;;;;;;0.55;0.40;;;17.10;52.50;;;;;;4547113;31;20492;-69
2022/03/09 07:48:13;;;;;;;1.00;0.45;;;17.10;52.50;;;;;;4546590;31;20142;-69
2022/03/09 07:50:39;;;;;;;2.33;0.52;;;17.10;52.50;;;;;;4532808;31;20116;-69
2022/03/09 07:53:06;;;;;;;0.93;0.40;;;17.10;52.40;;;;;;4546278;31;20700;-69
2022/03/09 07:55:32;;;;;;;0.82;0.50;;;17.10;52.40;;;;;;4547337;31;20194;-68
2022/03/09 07:57:58;;;;;;;1.08;0.57;;;17.10;52.40;;;;;;4546594;31;20245;-69
2022/03/09 08:00:24;;;;;;;0.95;0.40;;;17.10;52.50;;;;;;4546916;31;20147;-69
2022/03/09 08:02:54;;;;;;;1.45;0.60;;;17.10;52.30;;;;;;4546789;31;20196;-68
2022/03/09 08:05:21;;;;;;;0.75;0.50;;;17.10;52.30;;;;;;4546503;31;20158;-68
2022/03/09 08:07:48;;;;;;;0.50;0.40;;;17.10;52.30;;;;;;4532837;31;20128;-68
2022/03/09 08:10:14;;;;;;;1.10;0.50;;;17.10;52.30;;;;;;4546138;31;20134;-68
2022/03/09 08:12:40;;;;;;;0.77;0.40;;;17.10;52.40;;;;;;4532601;31;20219;-68
2022/03/09 08:15:06;;;;;;;0.60;0.50;;;17.10;52.40;;;;;;4546310;31;20132;-68
2022/03/09 08:17:32;;;;;;;0.93;0.38;;;17.10;52.30;;;;;;4546874;31;20187;-69
2022/03/09 08:19:58;;;;;;;1.45;0.68;;;17.10;52.30;;;;;;4546215;31;20135;-68
2022/03/09 08:22:24;;;;;;;0.88;0.40;;;17.10;52.30;;;;;;4546225;31;20245;-67
2022/03/09 08:24:50;;;;;;;2.20;0.82;;;17.10;52.30;;;;;;4547005;31;20668;-65
2022/03/09 08:27:16;;;;;;;2.05;1.40;;;17.10;52.10;;;;;;4545812;31;20142;-65
2022/03/09 08:29:42;;;;;;;4.07;2.88;;;17.10;51.40;;;;;;4546878;31;20201;-65
2022/03/09 08:32:08;;;;;;;5.30;2.72;;;17.10;49.90;;;;;;4545860;31;20116;-65
2022/03/09 08:34:33;;;;;;;4.28;2.92;;;17.10;49.00;;;;;;4546094;31;20120;-66
2022/03/09 08:36:59;;;;;;;3.55;2.90;;;17.10;48.40;;;;;;4545318;31;20128;-67
2022/03/09 08:39:26;;;;;;;4.43;3.10;;;17.10;48.20;;;;;;4545419;31;20292;-67
2022/03/09 08:41:52;;;;;;;5.85;3.00;;;17.10;48.10;;;;;;4545683;31;20576;-67
2022/03/09 08:44:20;;;;;;;9.85;3.10;;;17.10;48.20;;;;;;4544872;31;20219;-67
2022/03/09 08:46:46;;;;;;;6.15;2.97;;;17.10;48.40;;;;;;4546016;31;20128;-66
2022/03/09 08:49:12;;;;;;;7.03;2.63;;;17.10;48.40;;;;;;4545299;31;20132;-66
2022/03/09 08:51:38;;;;;;;4.43;2.90;;;17.10;48.60;;;;;;4546173;31;20184;-67
2022/03/09 08:54:04;;;;;;;3.05;2.50;;;17.10;48.80;;;;;;4545797;31;20192;-68
2022/03/09 08:56:29;;;;;;;3.47;2.67;;;17.10;48.90;;;;;;4545818;31;20140;-68
2022/03/09 08:58:56;;;;;;;3.28;2.08;;;17.10;48.90;;;;;;4546424;31;20147;-67
2022/03/09 09:01:23;;;;;;;3.88;2.20;;;17.20;49.00;;;;;;4545387;31;20253;-68
2022/03/09 09:03:49;;;;;;;3.95;2.15;;;17.20;49.00;;;;;;4546377;31;20146;-67
2022/03/09 09:06:16;;;;;;;5.15;2.20;;;17.30;48.90;;;;;;4545391;31;20127;-67
2022/03/09 09:08:42;;;;;;;5.53;1.85;;;17.40;49.00;;;;;;4546254;31;20115;-67
2022/03/09 09:11:08;;;;;;;3.00;1.85;;;17.40;48.90;;;;;;4545439;31;20212;-67
2022/03/09 09:13:34;;;;;;;2.25;1.90;;;17.50;48.80;;;;;;4545866;31;20136;-67
2022/03/09 09:16:00;;;;;;;5.05;1.85;;;17.60;48.70;;;;;;4545942;31;20135;-66
2022/03/09 09:18:26;;;;;;;3.75;1.63;;;17.80;48.40;;;;;;4545102;31;20139;-67
2022/03/09 09:20:53;;;;;;;3.13;1.67;;;18.00;48.30;;;;;;4545983;31;20139;-67
2022/03/09 09:23:21;;;;;;;3.30;1.58;;;18.00;48.00;;;;;;4545071;31;20193;-67
2022/03/09 09:25:48;;;;;;;2.53;1.52;;;18.20;47.90;;;;;;4545196;31;20182;-66
2022/03/09 09:28:14;;;;;;;3.25;1.33;;;18.30;47.80;;;;;;4544231;31;20124;-66
2022/03/09 09:30:40;;;;;;;2.60;1.23;;;18.40;47.50;;;;;;4544534;31;20139;-66
2022/03/09 09:33:06;;;;;;;2.67;1.60;;;18.50;47.50;;;;;;4544300;31;20170;-66
2022/03/09 09:35:32;;;;;;;2.83;1.17;;;18.50;47.30;;;;;;4543439;31;20142;-66
2022/03/09 09:38:06;;;;;;;4.32;1.33;;;18.70;47.20;;;;;;4545316;31;20124;-66
2022/03/09 09:40:40;;;;;;;;;;;18.80;47.00;;;;;;4544982;31;20605;-67
2022/03/09 09:43:10;;;;;;;3.05;1.45;;;18.90;47.00;;;;;;4531301;31;20020;-68
2022/03/09 09:45:36;;;;;;;2.88;1.08;;;19.00;46.70;;;;;;4545194;31;20135;-68
2022/03/09 09:48:05;;;;;;;2.10;1.08;;;19.20;46.50;;;;;;4544141;31;20115;-68
2022/03/09 09:50:33;;;;;;;1.52;0.90;;;19.30;46.30;;;;;;4530651;31;20127;-68
2022/03/09 09:53:02;;;;;;;3.83;1.08;;;19.40;46.20;;;;;;4543912;31;20150;-66
2022/03/09 09:55:28;;;;;;;2.97;1.00;;;19.50;46.10;;;;;;4545021;31;20194;-67
2022/03/09 09:57:55;;;;;;;4.30;1.20;;;19.60;46.00;;;;;;4544253;31;20128;-65
2022/03/09 10:00:22;;;;;;;4.50;1.10;;;19.70;45.80;;;;;;4548339;31;20143;-68
2022/03/09 10:02:48;;;;;;;1.45;0.95;;;19.90;45.70;;;;;;4534169;31;20124;-65
2022/03/09 10:05:16;;;;;;;1.67;1.02;;;20.00;45.60;;;;;;4548538;31;20177;-68
2022/03/09 10:08:10;;;;;;;2.40;0.93;;;20.10;45.50;;;;;;4548042;31;20216;-66
2022/03/09 10:10:41;;;;;;;3.35;2.08;;;20.20;45.40;;;;;;4545380;31;20212;-65
2022/03/09 10:13:10;;;;;;;3.53;2.33;;;20.30;44.00;;;;;;4548330;31;20123;-65
2022/03/09 10:15:36;;;;;;;3.15;2.53;;;20.40;42.50;;;;;;4548330;31;20306;-64
2022/03/09 10:18:12;;;;;;;5.35;3.00;;;20.40;41.50;;;;;;4547876;31;20523;-65
2022/03/09 10:20:39;;;;;;;4.63;3.20;;;20.40;40.70;;;;;;4548652;31;20142;-65
2022/03/09 10:23:04;;;;;;;9.02;3.13;;;20.30;40.00;;;;;;4547571;31;20139;-64
2022/03/09 10:25:30;;;;;;;4.60;3.47;;;20.20;39.50;;;;;;4548697;31;20088;-67
2022/03/09 10:27:56;;;;;;;6.15;3.55;;;20.10;39.10;;;;;;4547859;31;20124;-66
2022/03/09 10:30:35;;;;;;;4.80;3.58;;;20.00;38.90;;;;;;4547779;31;20127;-66
2022/03/09 10:33:04;;;;;;;6.30;3.47;;;19.90;38.60;;;;;;4547623;31;20138;-64
2022/03/09 10:35:30;;;;;;;6.32;3.63;;;19.80;38.50;;;;;;4547020;31;20127;-65
2022/03/09 10:38:00;;;;;;;6.97;4.05;;;19.70;38.30;;;;;;4533054;31;20162;-65
2022/03/09 10:40:28;;;;;;;5.32;3.90;;;19.60;38.10;;;;;;4546083;31;20199;-64
2022/03/09 10:43:24;;;;;;;5.50;3.67;;;19.40;38.10;;;;;;4546941;31;20151;-65
2022/03/09 10:46:09;;;;;;;5.10;3.90;;;19.40;37.90;;;;;;4547418;31;20208;-66
2022/03/09 10:48:57;;;;;;;6.45;3.78;;;19.20;38.30;;;;;;4546267;31;20253;-66
2022/03/09 10:51:33;;;;;;;8.23;4.20;;;19.20;38.10;;;;;;4547270;31;20174;-64
2022/03/09 10:54:02;;;;;;;6.93;4.20;;;19.10;38.30;;;;;;4546904;31;20131;-64
2022/03/09 10:56:28;;;;;;;5.22;3.88;;;18.90;38.60;;;;;;4546939;31;20143;-65
2022/03/09 10:58:54;;;;;;;6.00;4.53;;;18.90;38.70;;;;;;4547550;31;20124;-65
2022/03/09 11:01:23;;;;;;;6.03;3.92;;;18.80;38.60;;;;;;4546658;31;20132;-64
2022/03/09 11:03:49;;;;;;;5.75;4.30;;;18.70;38.60;;;;;;4547461;31;20131;-65
2022/03/09 11:06:17;;;;;;;7.65;4.90;;;18.70;38.60;;;;;;4546261;31;20159;-65
2022/03/09 11:08:43;;;;;;;5.88;4.40;;;18.60;38.50;;;;;;4547062;31;20192;-66
2022/03/09 11:11:09;;;;;;;6.57;4.40;;;18.60;38.50;;;;;;4531554;31;20506;-65
2022/03/09 11:13:37;;;;;;;4.57;3.75;;;18.50;38.50;;;;;;4546732;31;20115;-66
2022/03/09 11:16:04;;;;;;;6.57;4.88;;;18.50;38.40;;;;;;4532584;31;20213;-66
2022/03/09 11:18:31;;;;;;;5.97;4.43;;;18.40;38.30;;;;;;4545986;31;20189;-66
2022/03/09 11:21:09;;;;;;;7.05;5.20;;;18.40;38.40;;;;;;4546630;31;20285;-66
2022/03/09 11:23:39;;;;;;;7.05;5.10;;;18.40;38.20;;;;;;4545569;31;20120;-65
2022/03/09 11:26:17;;;;;;;6.63;4.60;;;18.40;38.30;;;;;;4546933;31;20216;-65
2022/03/09 11:28:44;;;;;;;7.43;4.30;;;18.30;37.80;;;;;;4547590;31;20128;-65
2022/03/09 11:31:15;;;;;;;6.72;4.35;;;18.30;38.30;;;;;;4519319;31;20127;-66
2022/03/09 11:33:42;;;;;;;6.75;4.50;;;18.30;38.30;;;;;;4547686;31;20185;-66
2022/03/09 11:36:23;;;;;;;8.07;4.43;;;18.30;38.10;;;;;;4546754;31;20104;-66
2022/03/09 11:38:52;;;;;;;5.88;4.57;;;18.30;38.00;;;;;;4547442;31;20615;-64
2022/03/09 11:41:24;;;;;;;6.85;4.78;;;18.30;37.70;;;;;;4531876;31;20613;-62
2022/03/09 11:43:52;;;;;;;8.98;5.00;;;18.20;37.40;;;;;;4546954;31;20112;-65
2022/03/09 11:46:19;;;;;;;6.65;4.57;;;18.20;37.40;;;;;;4547499;31;20143;-65
2022/03/09 11:48:51;;;;;;;6.78;4.70;;;18.20;37.50;;;;;;4533636;31;20776;-65
2022/03/09 11:51:18;;;;;;;6.40;4.85;;;18.20;37.10;;;;;;4529925;31;20269;-65
2022/03/09 11:53:50;;;;;;;6.50;4.35;;;18.10;37.40;;;;;;4530146;31;20134;-65
2022/03/09 11:56:38;;;;;;;5.57;4.40;;;18.10;37.60;;;;;;4530698;31;20131;-65
2022/03/09 11:59:08;;;;;;;7.32;4.70;;;18.10;37.50;;;;;;4531081;31;20135;-65
2022/03/09 12:01:59;;;;;;;5.78;4.40;;;18.10;37.70;;;;;;4537903;31;20138;-64
2022/03/09 12:04:40;;;;;;;6.18;4.57;;;18.10;37.60;;;;;;4546195;31;20193;-63
2022/03/09 12:07:07;;;;;;;4.82;4.18;;;18.10;37.50;;;;;;4546252;31;20155;-63
2022/03/09 12:09:57;;;;;;;7.78;4.47;;;18.10;37.80;;;;;;4545637;31;20289;-64
2022/03/09 12:12:25;;;;;;;7.78;4.55;;;18.10;37.40;;;;;;4546494;31;20179;-63
2022/03/09 12:15:07;;;;;;;6.65;4.75;;;18.10;37.50;;;;;;4545549;31;20155;-63
2022/03/09 12:17:38;;;;;;;7.55;5.05;;;18.20;37.30;;;;;;4546332;31;20142;-70
2022/03/09 12:20:18;;;;;;;6.45;4.38;;;18.20;37.40;;;;;;4546709;31;20483;-66
2022/03/09 12:22:56;;;;;;;6.93;4.10;;;18.20;37.20;;;;;;4545831;31;20149;-68
2022/03/09 12:25:45;;;;;;;6.05;4.05;;;18.30;37.20;;;;;;4531466;31;20137;-68
2022/03/09 12:28:29;;;;;;;7.30;3.78;;;18.30;37.50;;;;;;4544651;31;20150;-66
2022/03/09 12:30:56;;;;;;;6.68;3.75;;;18.40;37.70;;;;;;4546141;31;20461;-66
2022/03/09 12:33:24;;;;;;;5.63;3.65;;;18.40;38.80;;;;;;4546722;31;20116;-67
2022/03/09 12:36:10;;;;;;;6.72;3.22;;;18.40;38.00;;;;;;4544104;31;20135;-67
2022/03/09 12:38:45;;;;;;;7.65;3.58;;;18.50;38.20;;;;;;4545861;31;20154;-67
2022/03/09 12:41:32;;;;;;;4.07;2.95;;;18.50;38.30;;;;;;4543967;31;20147;-67
2022/03/09 12:44:22;;;;;;;6.00;2.78;;;18.50;38.50;;;;;;4544136;31;20132;-66
2022/03/09 12:46:52;;;;;;;5.50;2.72;;;18.60;38.70;;;;;;4546372;31;20215;-69
2022/03/09 12:49:22;;;;;;;4.57;2.67;;;18.60;38.70;;;;;;4544508;31;20224;-67
2022/03/09 12:51:53;;;;;;;5.57;2.50;;;18.60;38.90;;;;;;4531337;31;20120;-66
2022/03/09 12:54:48;;;;;;;5.50;2.83;;;18.60;39.10;;;;;;4546120;31;20131;-66